Station Historical Data
 
Daily Summary for September 21, 2018 Units:  English    Metric   Both
Next Day »
Daily Weekly Monthly Yearly Custom
  Current: High: Low: Average:
Temperature: 72.6 °F 84.9 °F 63.3 °F 72.5 °F
Dew Point: 38.55 °F 45.65 °F 35.09 °F 39.5 °F
Humidity: 29% 42% 18% 32%
Wind Speed: 0mph 14mph 0mph 2.7mph
Wind Gust: 0mph 14mph - -
WindCalm - - SE
Pressure: 29.95 in 29.99 in 29.90 in -
Precipitation: 0 in      
Historical Graphs
 
 
Tabular Data for September 21, 2018
Time Temperature Dew Point Pressure Wind Wind Speed Wind Gust Humidity Rainfall Rate (Hourly) solar Conditions
00:04 66.4 °F 41.37 °F 29.91 in East 8 mph 9 mph 40% 0 in 0.00 W/m2
00:09 66.4 °F 41.37 °F 29.91 in Calm   1 mph 40% 0 in 0.00 W/m2
00:14 66.5 °F 41.46 °F 29.91 in ESE 1 mph 9 mph 40% 0 in 0.00 W/m2
00:19 66.5 °F 40.8 °F 29.91 in East 1 mph 9 mph 39% 0 in 0.00 W/m2
00:24 66.5 °F 40.8 °F 29.91 in East 7 mph 7 mph 39% 0 in 0.00 W/m2
00:29 66.5 °F 40.8 °F 29.91 in East 4 mph 7 mph 39% 0 in 0.00 W/m2
00:34 66.6 °F 40.89 °F 29.91 in Calm   4 mph 39% 0 in 0.00 W/m2
00:39 66.6 °F 40.89 °F 29.91 in East 4 mph 12 mph 39% 0 in 0.00 W/m2
00:44 66.6 °F 40.89 °F 29.91 in East 6 mph 7 mph 39% 0 in 0.00 W/m2
00:49 66.6 °F 40.89 °F 29.91 in East 14 mph 14 mph 39% 0 in 0.00 W/m2
00:54 66.7 °F 40.98 °F 29.91 in ESE 2 mph 11 mph 39% 0 in 0.00 W/m2
00:59 66.7 °F 40.98 °F 29.91 in Calm   8 mph 39% 0 in 0.00 W/m2
01:04 66.7 °F 40.98 °F 29.91 in ESE 5 mph 11 mph 39% 0 in 0.00 W/m2
01:09 66.7 °F 40.98 °F 29.91 in East 2 mph 5 mph 39% 0 in 0.00 W/m2
01:14 66.7 °F 40.98 °F 29.91 in East 1 mph 4 mph 39% 0 in 0.00 W/m2
01:19 66.7 °F 40.98 °F 29.91 in Calm   6 mph 39% 0 in 0.00 W/m2
01:24 66.7 °F 40.98 °F 29.91 in East 1 mph 6 mph 39% 0 in 0.00 W/m2
01:29 66.6 °F 40.89 °F 29.91 in East 4 mph 9 mph 39% 0 in 0.00 W/m2
01:34 66.6 °F 40.89 °F 29.90 in Calm   4 mph 39% 0 in 0.00 W/m2
01:39 66.5 °F 40.8 °F 29.90 in East 11 mph 14 mph 39% 0 in 0.00 W/m2
01:44 66.4 °F 40.72 °F 29.91 in East 6 mph 7 mph 39% 0 in 0.00 W/m2
01:49 66.4 °F 40.72 °F 29.91 in Calm   2 mph 39% 0 in 0.00 W/m2
01:54 66.4 °F 40.05 °F 29.90 in Calm   1 mph 38% 0 in 0.00 W/m2
01:59 66.4 °F 40.05 °F 29.90 in ESE 4 mph 4 mph 38% 0 in 0.00 W/m2
02:04 66.3 °F 39.96 °F 29.90 in Calm   4 mph 38% 0 in 0.00 W/m2
02:09 66.3 °F 39.96 °F 29.90 in Calm   1 mph 38% 0 in 0.00 W/m2
02:14 66.3 °F 39.96 °F 29.90 in Calm   6 mph 38% 0 in 0.00 W/m2
02:19 66.2 °F 39.87 °F 29.91 in East 1 mph 5 mph 38% 0 in 0.00 W/m2
02:24 66.2 °F 39.87 °F 29.91 in ESE 6 mph 8 mph 38% 0 in 0.00 W/m2
02:29 66.1 °F 39.78 °F 29.91 in ESE 5 mph 7 mph 38% 0 in 0.00 W/m2
02:34 66.1 °F 39.78 °F 29.91 in Calm   11 mph 38% 0 in 0.00 W/m2
02:39 66 °F 39.69 °F 29.91 in ESE 5 mph 6 mph 38% 0 in 0.00 W/m2
02:44 65.9 °F 39.6 °F 29.91 in East 6 mph 6 mph 38% 0 in 0.00 W/m2
02:49 65.9 °F 39.6 °F 29.91 in East 5 mph 8 mph 38% 0 in 0.00 W/m2
02:54 65.8 °F 39.51 °F 29.91 in East 7 mph 7 mph 38% 0 in 0.00 W/m2
02:59 65.7 °F 40.09 °F 29.92 in East 6 mph 6 mph 39% 0 in 0.00 W/m2
03:04 65.6 °F 39.33 °F 29.92 in East 5 mph 5 mph 38% 0 in 0.00 W/m2
03:09 65.5 °F 39.25 °F 29.92 in Calm   1 mph 38% 0 in 0.00 W/m2
03:14 65.4 °F 39.82 °F 29.92 in Calm     39% 0 in 0.00 W/m2
03:19 65.3 °F 39.07 °F 29.92 in Calm     38% 0 in 0.00 W/m2
03:24 65.2 °F 38.98 °F 29.92 in Calm   7 mph 38% 0 in 0.00 W/m2
03:29 65.1 °F 38.89 °F 29.92 in Calm   2 mph 38% 0 in 0.00 W/m2
03:34 65.1 °F 38.89 °F 29.92 in Calm   5 mph 38% 0 in 0.00 W/m2
03:39 65 °F 38.8 °F 29.92 in East 5 mph 6 mph 38% 0 in 0.00 W/m2
03:44 64.9 °F 38.71 °F 29.92 in Calm   7 mph 38% 0 in 0.00 W/m2
03:49 64.9 °F 38.71 °F 29.92 in Calm     38% 0 in 0.00 W/m2
03:54 64.9 °F 38.71 °F 29.92 in Calm     38% 0 in 0.00 W/m2
03:59 64.9 °F 38.71 °F 29.92 in ESE 1 mph 7 mph 38% 0 in 0.00 W/m2
04:04 64.8 °F 38.62 °F 29.92 in East 6 mph 7 mph 38% 0 in 0.00 W/m2
04:09 64.8 °F 38.62 °F 29.92 in East 6 mph 6 mph 38% 0 in 0.00 W/m2
04:14 64.7 °F 38.53 °F 29.92 in East 4 mph 5 mph 38% 0 in 0.00 W/m2
04:19 64.7 °F 38.53 °F 29.92 in East 5 mph 6 mph 38% 0 in 0.00 W/m2
04:24 64.7 °F 38.53 °F 29.92 in East 1 mph 1 mph 38% 0 in 0.00 W/m2
04:29 64.6 °F 38.44 °F 29.93 in East 2 mph 4 mph 38% 0 in 0.00 W/m2
04:34 64.5 °F 38.35 °F 29.93 in East 6 mph 9 mph 38% 0 in 0.00 W/m2
04:39 64.4 °F 38.26 °F 29.92 in East 6 mph 6 mph 38% 0 in 0.00 W/m2
04:44 64.3 °F 38.18 °F 29.93 in East 6 mph 7 mph 38% 0 in 0.00 W/m2
04:49 64.2 °F 37.41 °F 29.93 in East 5 mph 8 mph 37% 0 in 0.00 W/m2
04:54 64.1 °F 38 °F 29.93 in East 8 mph 8 mph 38% 0 in 0.00 W/m2
04:59 64.1 °F 38 °F 29.93 in Calm   1 mph 38% 0 in 0.00 W/m2
05:04 64 °F 37.23 °F 29.93 in East 4 mph 4 mph 37% 0 in 0.00 W/m2
05:09 64 °F 37.91 °F 29.93 in Calm   9 mph 38% 0 in 0.00 W/m2
05:14 64 °F 37.23 °F 29.93 in East 11 mph 12 mph 37% 0 in 0.00 W/m2
05:19 64 °F 37.23 °F 29.93 in East 4 mph 7 mph 37% 0 in 0.00 W/m2
05:24 64 °F 37.91 °F 29.93 in ESE 7 mph 8 mph 38% 0 in 0.00 W/m2
05:29 64 °F 37.23 °F 29.93 in Calm   4 mph 37% 0 in 0.00 W/m2
05:34 64 °F 37.23 °F 29.93 in East 4 mph 9 mph 37% 0 in 0.00 W/m2
05:39 63.9 °F 37.14 °F 29.93 in ESE 4 mph 6 mph 37% 0 in 0.00 W/m2
05:44 63.9 °F 37.14 °F 29.93 in ESE 5 mph 9 mph 37% 0 in 0.00 W/m2
05:49 63.8 °F 37.05 °F 29.93 in Calm   7 mph 37% 0 in 0.00 W/m2
05:54 63.8 °F 37.05 °F 29.93 in ESE 5 mph 8 mph 37% 0 in 0.00 W/m2
05:59 63.7 °F 36.96 °F 29.93 in ESE 7 mph 8 mph 37% 0 in 0.00 W/m2
06:04 63.7 °F 36.96 °F 29.93 in ESE 2 mph 5 mph 37% 0 in 0.00 W/m2
06:09 63.7 °F 36.96 °F 29.94 in ESE 4 mph 6 mph 37% 0 in 0.00 W/m2
06:14 63.7 °F 36.96 °F 29.94 in ESE 6 mph 6 mph 37% 0 in 0.00 W/m2
06:19 63.6 °F 36.88 °F 29.94 in ESE 7 mph 8 mph 37% 0 in 0.00 W/m2
06:24 63.6 °F 36.88 °F 29.94 in ESE 5 mph 6 mph 37% 0 in 0.00 W/m2
06:29 63.5 °F 36.79 °F 29.94 in East 4 mph 4 mph 37% 0 in 0.00 W/m2
06:34 63.5 °F 36.79 °F 29.94 in East 4 mph 4 mph 37% 0 in 0.00 W/m2
06:39 63.5 °F 36.79 °F 29.95 in Calm   1 mph 37% 0 in 0.00 W/m2
06:44 63.4 °F 36.7 °F 29.95 in ESE 9 mph 9 mph 37% 0 in 0.00 W/m2
06:49 63.4 °F 36.7 °F 29.95 in ESE 5 mph 6 mph 37% 0 in 5.00 W/m2
06:54 63.4 °F 36.7 °F 29.95 in East 4 mph 8 mph 37% 0 in 7.00 W/m2
06:59 63.4 °F 36.7 °F 29.95 in East 2 mph 11 mph 37% 0 in 12.00 W/m2
07:04 63.4 °F 36.7 °F 29.95 in ESE 2 mph 5 mph 37% 0 in 16.00 W/m2
07:09 63.4 °F 36.7 °F 29.95 in ESE 2 mph 8 mph 37% 0 in 21.00 W/m2
07:14 63.4 °F 36.7 °F 29.95 in East 1 mph 2 mph 37% 0 in 30.00 W/m2
07:19 63.4 °F 36.7 °F 29.95 in East 5 mph 5 mph 37% 0 in 46.00 W/m2
07:24 63.4 °F 36.7 °F 29.95 in East 6 mph 11 mph 37% 0 in 54.00 W/m2
07:29 63.4 °F 37.37 °F 29.96 in East 2 mph 6 mph 38% 0 in 69.00 W/m2
07:34 63.4 °F 37.37 °F 29.96 in East 12 mph 12 mph 38% 0 in 86.00 W/m2
07:39 63.3 °F 37.28 °F 29.96 in East 2 mph 5 mph 38% 0 in 100.00 W/m2
07:44 63.3 °F 37.28 °F 29.96 in Calm   5 mph 38% 0 in 116.00 W/m2
07:49 63.4 °F 37.37 °F 29.96 in East 5 mph 6 mph 38% 0 in 134.00 W/m2
07:54 63.4 °F 38.03 °F 29.96 in Calm   2 mph 39% 0 in 162.00 W/m2
07:59 63.4 °F 38.03 °F 29.97 in East 7 mph 7 mph 39% 0 in 183.00 W/m2
08:04 63.4 °F 38.03 °F 29.97 in East 1 mph 6 mph 39% 0 in 200.00 W/m2
08:09 63.5 °F 38.77 °F 29.97 in East 4 mph 4 mph 40% 0 in 211.00 W/m2
08:14 63.6 °F 38.86 °F 29.97 in East 1 mph 1 mph 40% 0 in 229.00 W/m2
08:19 63.7 °F 38.95 °F 29.97 in East 2 mph 2 mph 40% 0 in 244.00 W/m2
08:24 63.8 °F 39.04 °F 29.97 in East 5 mph 9 mph 40% 0 in 258.00 W/m2
08:29 64 °F 39.22 °F 29.97 in East 5 mph 7 mph 40% 0 in 281.00 W/m2
08:34 64.2 °F 39.4 °F 29.97 in Calm   1 mph 40% 0 in 297.00 W/m2
08:39 64.4 °F 39.58 °F 29.97 in East 5 mph 5 mph 40% 0 in 313.00 W/m2
08:44 64.6 °F 39.76 °F 29.97 in Calm   1 mph 40% 0 in 329.00 W/m2
08:49 64.8 °F 39.94 °F 29.97 in East 2 mph 2 mph 40% 0 in 345.00 W/m2
08:54 65 °F 40.75 °F 29.98 in East 2 mph 5 mph 41% 0 in 359.00 W/m2
08:59 65.3 °F 41.02 °F 29.98 in East 1 mph 1 mph 41% 0 in 376.00 W/m2
09:04 65.5 °F 41.2 °F 29.98 in Calm     41% 0 in 388.00 W/m2
09:09 65.8 °F 41.47 °F 29.98 in Calm     41% 0 in 406.00 W/m2
09:14 66 °F 42.27 °F 29.98 in Calm     42% 0 in 422.00 W/m2
09:19 66.3 °F 42.54 °F 29.98 in East 1 mph 1 mph 42% 0 in 434.00 W/m2
09:24 66.7 °F 42.9 °F 29.98 in Calm     42% 0 in 448.00 W/m2
09:29 67.2 °F 43.36 °F 29.98 in East 1 mph 6 mph 42% 0 in 459.00 W/m2
09:34 67.8 °F 43.27 °F 29.98 in Calm     41% 0 in 476.00 W/m2
09:39 68.2 °F 42.98 °F 29.98 in Calm     40% 0 in 492.00 W/m2
09:45 68.7 °F 43.43 °F 29.98 in Calm     40% 0 in 504.00 W/m2
09:49 69.2 °F 42.54 °F 29.98 in East 5 mph 6 mph 38% 0 in 517.00 W/m2
09:54 69.8 °F 42.38 °F 29.98 in Calm   1 mph 37% 0 in 529.00 W/m2
09:59 70.4 °F 44.29 °F 29.98 in Calm     39% 0 in 543.00 W/m2
10:04 70.9 °F 44.05 °F 29.98 in Calm     38% 0 in 554.00 W/m2
10:09 71.3 °F 44.41 °F 29.98 in ESE 4 mph 5 mph 38% 0 in 564.00 W/m2
10:14 71.8 °F 44.85 °F 29.98 in Calm     38% 0 in 580.00 W/m2
10:19 72.3 °F 45.3 °F 29.98 in Calm     38% 0 in 591.00 W/m2
10:24 72.7 °F 45.65 °F 29.99 in Calm     38% 0 in 601.00 W/m2
10:29 73.1 °F 43.85 °F 29.99 in ESE 2 mph 2 mph 35% 0 in 612.00 W/m2
10:34 73.5 °F 44.2 °F 29.99 in Calm   2 mph 35% 0 in 621.00 W/m2
10:39 73.8 °F 45.2 °F 29.99 in ESE 2 mph 5 mph 36% 0 in 633.00 W/m2
10:44 74.2 °F 43.28 °F 29.99 in SE 9 mph 9 mph 33% 0 in 640.00 W/m2
10:49 74.7 °F 44.5 °F 29.99 in Calm     34% 0 in 656.00 W/m2
10:54 75.1 °F 44.06 °F 29.99 in South 6 mph 7 mph 33% 0 in 661.00 W/m2
10:59 75.5 °F 44.41 °F 29.98 in Calm     33% 0 in 670.00 W/m2
11:04 75.7 °F 43.78 °F 29.99 in Calm   5 mph 32% 0 in 675.00 W/m2
11:09 76 °F 42.36 °F 29.98 in South 3 mph 7 mph 30% 0 in 686.00 W/m2
11:14 76.4 °F 43.56 °F 29.99 in Calm     31% 0 in 696.00 W/m2
11:19 76.7 °F 43.82 °F 29.98 in Calm     31% 0 in 703.00 W/m2
11:24 77 °F 43.22 °F 29.98 in Calm     30% 0 in 710.00 W/m2
11:29 77.3 °F 43.48 °F 29.98 in SSW 1 mph 3 mph 30% 0 in 715.00 W/m2
11:34 77.6 °F 41.01 °F 29.99 in SW 8 mph 9 mph 27% 0 in 722.00 W/m2
11:39 78 °F 43.2 °F 29.99 in Calm     29% 0 in 728.00 W/m2
11:44 78.4 °F 43.55 °F 29.99 in SW 2 mph 2 mph 29% 0 in 731.00 W/m2
11:49 78.8 °F 42.03 °F 29.99 in Calm     27% 0 in 738.00 W/m2
11:54 79.3 °F 42.46 °F 29.98 in SSW 4 mph 6 mph 27% 0 in 735.00 W/m2
11:59 79.8 °F 41.9 °F 29.98 in South 6 mph 8 mph 26% 0 in 744.00 W/m2
12:04 80.4 °F 41.39 °F 29.98 in South 4 mph 6 mph 25% 0 in 749.00 W/m2
12:09 80.9 °F 41.82 °F 29.98 in South 5 mph 5 mph 25% 0 in 751.00 W/m2
12:14 81.3 °F 41.1 °F 29.98 in SSW 4 mph 5 mph 24% 0 in 751.00 W/m2
12:19 81.8 °F 41.52 °F 29.98 in South 7 mph 9 mph 24% 0 in 758.00 W/m2
12:24 82.1 °F 40.67 °F 29.98 in South 5 mph 8 mph 23% 0 in 756.00 W/m2
12:29 82.4 °F 39.78 °F 29.98 in South 8 mph 8 mph 22% 0 in 758.00 W/m2
12:34 82.6 °F 39.94 °F 29.98 in South 8 mph 10 mph 22% 0 in 763.00 W/m2
12:39 82.6 °F 38.75 °F 29.98 in SW 6 mph 10 mph 21% 0 in 759.00 W/m2
12:44 82.3 °F 38.5 °F 29.98 in WSW 1 mph 2 mph 21% 0 in 765.00 W/m2
12:49 82.1 °F 39.53 °F 29.98 in SSW 4 mph 5 mph 22% 0 in 761.00 W/m2
12:54 82.2 °F 38.42 °F 29.98 in South 1 mph 1 mph 21% 0 in 761.00 W/m2
12:59 82.3 °F 39.69 °F 29.98 in South 3 mph 8 mph 22% 0 in 761.00 W/m2
13:04 82.6 °F 38.75 °F 29.97 in South 3 mph 4 mph 21% 0 in 758.00 W/m2
13:09 82.9 °F 37.75 °F 29.97 in Calm     20% 0 in 758.00 W/m2
13:14 83.2 °F 36.7 °F 29.97 in SSW 4 mph 7 mph 19% 0 in 754.00 W/m2
13:19 83.2 °F 38 °F 29.97 in Calm     20% 0 in 759.00 W/m2
13:24 82.9 °F 36.45 °F 29.97 in SSW 6 mph 6 mph 19% 0 in 752.00 W/m2
13:29 83.2 °F 36.7 °F 29.97 in SSW 1 mph 1 mph 19% 0 in 751.00 W/m2
13:34 83.7 °F 37.11 °F 29.97 in South 1 mph 1 mph 19% 0 in 745.00 W/m2
13:39 84.2 °F 37.52 °F 29.97 in South 1 mph 5 mph 19% 0 in 740.00 W/m2
13:44 84.7 °F 37.92 °F 29.97 in Calm     19% 0 in 737.00 W/m2
13:49 84.9 °F 39.4 °F 29.97 in SW 2 mph 2 mph 20% 0 in 729.00 W/m2
13:54 84.4 °F 38.99 °F 29.97 in WSW 3 mph 3 mph 20% 0 in 726.00 W/m2
13:59 84.2 °F 40.07 °F 29.97 in South 6 mph 6 mph 21% 0 in 717.00 W/m2
14:04 84.1 °F 38.74 °F 29.97 in Calm     20% 0 in 715.00 W/m2
14:09 84.4 °F 37.68 °F 29.97 in Calm     19% 0 in 707.00 W/m2
14:14 84.5 °F 39.07 °F 29.97 in SW 10 mph 11 mph 20% 0 in 693.00 W/m2
14:19 84.6 °F 40.4 °F 29.96 in WSW 4 mph 4 mph 21% 0 in 691.00 W/m2
14:24 84.3 °F 40.16 °F 29.96 in Calm   1 mph 21% 0 in 686.00 W/m2
14:29 84.2 °F 38.82 °F 29.96 in WSW 6 mph 6 mph 20% 0 in 677.00 W/m2
14:34 84.1 °F 38.74 °F 29.96 in West 4 mph 6 mph 20% 0 in 668.00 W/m2
14:39 83.7 °F 38.41 °F 29.96 in SW 7 mph 12 mph 20% 0 in 659.00 W/m2
14:44 83.4 °F 39.41 °F 29.96 in West 7 mph 7 mph 21% 0 in 645.00 W/m2
14:49 83 °F 39.08 °F 29.96 in SSW 2 mph 6 mph 21% 0 in 645.00 W/m2
14:54 82.9 °F 40.19 °F 29.96 in SW 1 mph 3 mph 22% 0 in 631.00 W/m2
14:59 82.9 °F 39 °F 29.96 in SW 4 mph 6 mph 21% 0 in 624.00 W/m2
15:04 83 °F 40.28 °F 29.95 in SW 5 mph 9 mph 22% 0 in 613.00 W/m2
15:09 83.1 °F 40.36 °F 29.96 in SSW 4 mph 8 mph 22% 0 in 596.00 W/m2
15:14 83.2 °F 38 °F 29.95 in SW 7 mph 7 mph 20% 0 in 592.00 W/m2
15:19 83.3 °F 38.08 °F 29.95 in WSW 4 mph 5 mph 20% 0 in 573.00 W/m2
15:24 83 °F 37.84 °F 29.95 in SSW 6 mph 8 mph 20% 0 in 570.00 W/m2
15:29 82.9 °F 37.75 °F 29.95 in South 4 mph 4 mph 20% 0 in 570.00 W/m2
15:34 83 °F 37.84 °F 29.95 in SSW 5 mph 8 mph 20% 0 in 548.00 W/m2
15:39 83.1 °F 36.62 °F 29.95 in SSE 6 mph 7 mph 19% 0 in 536.00 W/m2
15:44 83.1 °F 36.62 °F 29.95 in Calm     19% 0 in 527.00 W/m2
15:49 83 °F 37.84 °F 29.95 in Calm     20% 0 in 508.00 W/m2
15:54 82.9 °F 36.45 °F 29.95 in Calm     19% 0 in 496.00 W/m2
15:59 82.9 °F 37.75 °F 29.94 in SW 7 mph 7 mph 20% 0 in 483.00 W/m2
16:04 82.9 °F 37.75 °F 29.94 in Calm     20% 0 in 469.00 W/m2
16:09 82.9 °F 36.45 °F 29.94 in Calm   4 mph 19% 0 in 464.00 W/m2
16:14 83 °F 37.84 °F 29.94 in Calm     20% 0 in 446.00 W/m2
16:19 82.9 °F 36.45 °F 29.94 in SSW 3 mph 4 mph 19% 0 in 422.00 W/m2
16:24 82.9 °F 36.45 °F 29.94 in Calm     19% 0 in 420.00 W/m2
16:29 82.9 °F 35.09 °F 29.94 in South 7 mph 7 mph 18% 0 in 401.00 W/m2
16:34 82.8 °F 36.37 °F 29.94 in Calm     19% 0 in 381.00 W/m2
16:39 82.7 °F 36.29 °F 29.94 in SW 3 mph 5 mph 19% 0 in 371.00 W/m2
16:44 82.6 °F 36.21 °F 29.94 in Calm   4 mph 19% 0 in 353.00 W/m2
16:49 82.5 °F 37.43 °F 29.94 in SW 5 mph 5 mph 20% 0 in 341.00 W/m2
16:54 82.4 °F 36.04 °F 29.94 in SW 3 mph 3 mph 19% 0 in 322.00 W/m2
16:59 82.4 °F 37.34 °F 29.94 in WSW 2 mph 4 mph 20% 0 in 306.00 W/m2
17:04 82.3 °F 37.26 °F 29.94 in SW 1 mph 3 mph 20% 0 in 292.00 W/m2
17:09 82.2 °F 37.18 °F 29.94 in SW 2 mph 4 mph 20% 0 in 276.00 W/m2
17:14 82.2 °F 37.18 °F 29.94 in Calm   1 mph 20% 0 in 262.00 W/m2
17:19 82 °F 37.01 °F 29.94 in Calm     20% 0 in 244.00 W/m2
17:24 81.8 °F 38.09 °F 29.94 in Calm     21% 0 in 230.00 W/m2
17:29 81.6 °F 39.11 °F 29.93 in WSW 1 mph 2 mph 22% 0 in 207.00 W/m2
17:34 81.4 °F 37.76 °F 29.93 in WSW 2 mph 3 mph 21% 0 in 188.00 W/m2
17:39 81.2 °F 39.92 °F 29.93 in Calm     23% 0 in 169.00 W/m2
17:44 81 °F 38.61 °F 29.93 in Calm     22% 0 in 146.00 W/m2
17:49 80.7 °F 39.5 °F 29.93 in Calm     23% 0 in 132.00 W/m2
17:54 80.6 °F 39.42 °F 29.93 in Calm     23% 0 in 113.00 W/m2
17:59 80.4 °F 40.34 °F 29.93 in Calm     24% 0 in 95.00 W/m2
18:04 80.1 °F 40.09 °F 29.94 in Calm     24% 0 in 79.00 W/m2
18:09 79.8 °F 40.89 °F 29.94 in Calm     25% 0 in 63.00 W/m2
18:14 79.4 °F 40.55 °F 29.94 in Calm     25% 0 in 51.00 W/m2
18:19 79 °F 40.21 °F 29.94 in Calm     25% 0 in 39.00 W/m2
18:24 78.6 °F 39.87 °F 29.94 in Calm     25% 0 in 28.00 W/m2
18:29 78.1 °F 40.46 °F 29.94 in Calm     26% 0 in 21.00 W/m2
18:34 77.6 °F 40.03 °F 29.94 in Calm     26% 0 in 19.00 W/m2
18:40 77.2 °F 40.66 °F 29.94 in Calm     27% 0 in 18.00 W/m2
18:44 76.7 °F 40.24 °F 29.94 in Calm     27% 0 in 14.00 W/m2
18:49 76.2 °F 40.75 °F 29.94 in Calm     28% 0 in 12.00 W/m2
18:54 75.7 °F 41.22 °F 29.94 in Calm     29% 0 in 9.00 W/m2
18:59 75.1 °F 40.71 °F 29.94 in Calm     29% 0 in 7.00 W/m2
19:04 74.6 °F 40.28 °F 29.94 in Calm     29% 0 in 0.00 W/m2
19:09 74.1 °F 39.85 °F 29.94 in Calm     29% 0 in 0.00 W/m2
19:14 73.6 °F 39.42 °F 29.94 in Calm     29% 0 in 0.00 W/m2
19:19 73.1 °F 38.98 °F 29.95 in Calm     29% 0 in 0.00 W/m2
19:24 72.6 °F 38.55 °F 29.95 in Calm     29% 0 in 0.00 W/m2
Foresthill Weather
 WU-history PHP script courtesy of   Juneau County Weather.
powered by Cumulus v1.9.3 (1059)
Ambient Weather VWS v14.00
Top Contact Website Map Copyright © 2007 - 2018 Foresthillweather.com Never base important decisions on this or any weather information obtained from the Internet